sensor_id;sensor_type;location;lat;lon;timestamp;temperature;humidity
10903;DHT22;5504;47.312;11.060;2022-09-14T00:01:37;18.40;93.60
10903;DHT22;5504;47.312;11.060;2022-09-14T00:04:11;18.40;93.30
10903;DHT22;5504;47.312;11.060;2022-09-14T00:06:37;18.40;93.40
10903;DHT22;5504;47.312;11.060;2022-09-14T00:09:04;18.50;93.20
10903;DHT22;5504;47.312;11.060;2022-09-14T00:11:32;18.60;92.90
10903;DHT22;5504;47.312;11.060;2022-09-14T00:14:00;18.60;92.70
10903;DHT22;5504;47.312;11.060;2022-09-14T00:16:29;18.60;92.70
10903;DHT22;5504;47.312;11.060;2022-09-14T00:18:58;18.50;93.20
10903;DHT22;5504;47.312;11.060;2022-09-14T00:21:34;18.10;93.80
10903;DHT22;5504;47.312;11.060;2022-09-14T00:24:00;18.10;93.70
10903;DHT22;5504;47.312;11.060;2022-09-14T00:26:26;18.10;93.70
10903;DHT22;5504;47.312;11.060;2022-09-14T00:28:56;18.20;93.90
10903;DHT22;5504;47.312;11.060;2022-09-14T00:31:23;18.30;94.00
10903;DHT22;5504;47.312;11.060;2022-09-14T00:33:50;18.30;94.00
10903;DHT22;5504;47.312;11.060;2022-09-14T00:36:25;18.30;94.10
10903;DHT22;5504;47.312;11.060;2022-09-14T00:38:52;18.30;94.20
10903;DHT22;5504;47.312;11.060;2022-09-14T00:41:26;18.10;93.90
10903;DHT22;5504;47.312;11.060;2022-09-14T00:46:46;18.20;94.20
10903;DHT22;5504;47.312;11.060;2022-09-14T00:49:17;18.20;94.40
10903;DHT22;5504;47.312;11.060;2022-09-14T00:54:54;18.30;94.30
10903;DHT22;5504;47.312;11.060;2022-09-14T00:57:21;18.30;94.30
10903;DHT22;5504;47.312;11.060;2022-09-14T00:59:49;18.30;94.40
10903;DHT22;5504;47.312;11.060;2022-09-14T01:02:17;18.10;94.30
10903;DHT22;5504;47.312;11.060;2022-09-14T01:04:44;17.90;94.60
10903;DHT22;5504;47.312;11.060;2022-09-14T01:18:41;18.00;94.50
10903;DHT22;5504;47.312;11.060;2022-09-14T01:21:09;18.00;94.60
10903;DHT22;5504;47.312;11.060;2022-09-14T01:26:38;18.10;94.60
10903;DHT22;5504;47.312;11.060;2022-09-14T01:29:15;18.00;94.50
10903;DHT22;5504;47.312;11.060;2022-09-14T01:42:55;18.20;94.50
10903;DHT22;5504;47.312;11.060;2022-09-14T01:45:23;18.30;94.50
10903;DHT22;5504;47.312;11.060;2022-09-14T01:47:59;18.30;94.50
10903;DHT22;5504;47.312;11.060;2022-09-14T01:50:30;18.30;94.60
10903;DHT22;5504;47.312;11.060;2022-09-14T01:53:38;18.20;94.60
10903;DHT22;5504;47.312;11.060;2022-09-14T01:56:00;18.20;94.70
10903;DHT22;5504;47.312;11.060;2022-09-14T01:59:07;18.00;94.60
10903;DHT22;5504;47.312;11.060;2022-09-14T02:01:40;18.00;94.70
10903;DHT22;5504;47.312;11.060;2022-09-14T02:04:10;18.00;95.00
10903;DHT22;5504;47.312;11.060;2022-09-14T02:06:43;18.00;95.30
10903;DHT22;5504;47.312;11.060;2022-09-14T02:09:13;18.00;95.30
10903;DHT22;5504;47.312;11.060;2022-09-14T02:11:40;18.00;95.00
10903;DHT22;5504;47.312;11.060;2022-09-14T02:14:06;18.10;95.10
10903;DHT22;5504;47.312;11.060;2022-09-14T02:16:32;18.20;94.80
10903;DHT22;5504;47.312;11.060;2022-09-14T02:18:59;18.20;94.70
10903;DHT22;5504;47.312;11.060;2022-09-14T02:21:31;18.20;94.90
10903;DHT22;5504;47.312;11.060;2022-09-14T02:23:58;18.00;94.70
10903;DHT22;5504;47.312;11.060;2022-09-14T02:26:25;18.00;94.90
10903;DHT22;5504;47.312;11.060;2022-09-14T02:28:51;18.00;95.00
10903;DHT22;5504;47.312;11.060;2022-09-14T02:31:41;17.90;95.00
10903;DHT22;5504;47.312;11.060;2022-09-14T02:39:44;18.10;95.20
10903;DHT22;5504;47.312;11.060;2022-09-14T02:44:59;18.00;95.20
10903;DHT22;5504;47.312;11.060;2022-09-14T02:47:33;18.00;95.10
10903;DHT22;5504;47.312;11.060;2022-09-14T02:55:28;18.00;95.20
10903;DHT22;5504;47.312;11.060;2022-09-14T02:58:07;17.90;95.10
10903;DHT22;5504;47.312;11.060;2022-09-14T03:00:36;17.90;95.20
10903;DHT22;5504;47.312;11.060;2022-09-14T03:03:06;18.00;95.10
10903;DHT22;5504;47.312;11.060;2022-09-14T03:05:33;17.90;94.90
10903;DHT22;5504;47.312;11.060;2022-09-14T03:08:00;18.00;95.00
10903;DHT22;5504;47.312;11.060;2022-09-14T03:10:26;18.20;94.70
10903;DHT22;5504;47.312;11.060;2022-09-14T03:12:52;18.10;94.70
10903;DHT22;5504;47.312;11.060;2022-09-14T03:15:18;18.10;95.00
10903;DHT22;5504;47.312;11.060;2022-09-14T03:17:45;18.00;95.10
10903;DHT22;5504;47.312;11.060;2022-09-14T03:20:12;18.00;95.10
10903;DHT22;5504;47.312;11.060;2022-09-14T03:22:38;18.00;95.30
10903;DHT22;5504;47.312;11.060;2022-09-14T03:25:03;18.10;95.00
10903;DHT22;5504;47.312;11.060;2022-09-14T03:27:29;18.10;95.00
10903;DHT22;5504;47.312;11.060;2022-09-14T03:29:55;18.00;94.80
10903;DHT22;5504;47.312;11.060;2022-09-14T03:32:21;18.00;94.80
10903;DHT22;5504;47.312;11.060;2022-09-14T03:34:46;18.00;95.10
10903;DHT22;5504;47.312;11.060;2022-09-14T03:37:12;18.00;95.20
10903;DHT22;5504;47.312;11.060;2022-09-14T03:39:38;18.00;95.00
10903;DHT22;5504;47.312;11.060;2022-09-14T03:42:03;18.00;95.20
10903;DHT22;5504;47.312;11.060;2022-09-14T03:44:29;18.00;95.20
10903;DHT22;5504;47.312;11.060;2022-09-14T03:46:55;18.00;95.30
10903;DHT22;5504;47.312;11.060;2022-09-14T03:49:20;18.00;95.30
10903;DHT22;5504;47.312;11.060;2022-09-14T03:51:46;18.00;95.30
10903;DHT22;5504;47.312;11.060;2022-09-14T03:54:12;18.00;95.00
10903;DHT22;5504;47.312;11.060;2022-09-14T03:56:37;18.00;95.20
10903;DHT22;5504;47.312;11.060;2022-09-14T03:59:03;18.00;94.90
10903;DHT22;5504;47.312;11.060;2022-09-14T04:01:29;17.90;95.00
10903;DHT22;5504;47.312;11.060;2022-09-14T04:03:57;17.90;95.00
10903;DHT22;5504;47.312;11.060;2022-09-14T04:06:22;18.00;95.40
10903;DHT22;5504;47.312;11.060;2022-09-14T04:08:48;17.90;95.30
10903;DHT22;5504;47.312;11.060;2022-09-14T04:11:19;18.00;95.30
10903;DHT22;5504;47.312;11.060;2022-09-14T04:13:45;18.00;95.50
10903;DHT22;5504;47.312;11.060;2022-09-14T04:16:12;17.90;95.20
10903;DHT22;5504;47.312;11.060;2022-09-14T04:18:38;17.80;95.30
10903;DHT22;5504;47.312;11.060;2022-09-14T04:21:07;17.80;95.10
10903;DHT22;5504;47.312;11.060;2022-09-14T04:23:34;17.80;95.10
10903;DHT22;5504;47.312;11.060;2022-09-14T04:26:00;17.80;95.50
10903;DHT22;5504;47.312;11.060;2022-09-14T04:28:25;17.90;95.60
10903;DHT22;5504;47.312;11.060;2022-09-14T04:30:59;17.90;95.30
10903;DHT22;5504;47.312;11.060;2022-09-14T04:33:28;17.90;95.00
10903;DHT22;5504;47.312;11.060;2022-09-14T04:36:15;18.00;94.90
10903;DHT22;5504;47.312;11.060;2022-09-14T04:38:42;18.00;95.00
10903;DHT22;5504;47.312;11.060;2022-09-14T04:41:13;18.10;94.90
10903;DHT22;5504;47.312;11.060;2022-09-14T04:43:39;18.10;94.90
10903;DHT22;5504;47.312;11.060;2022-09-14T04:46:08;18.00;95.10
10903;DHT22;5504;47.312;11.060;2022-09-14T04:48:34;17.90;95.00
10903;DHT22;5504;47.312;11.060;2022-09-14T04:51:05;17.90;95.20
10903;DHT22;5504;47.312;11.060;2022-09-14T04:53:35;18.00;94.90
10903;DHT22;5504;47.312;11.060;2022-09-14T04:56:04;18.10;94.90
10903;DHT22;5504;47.312;11.060;2022-09-14T04:58:30;18.00;95.10
10903;DHT22;5504;47.312;11.060;2022-09-14T05:01:07;17.90;95.00
10903;DHT22;5504;47.312;11.060;2022-09-14T05:03:34;17.90;95.30
10903;DHT22;5504;47.312;11.060;2022-09-14T05:06:01;17.90;95.60
10903;DHT22;5504;47.312;11.060;2022-09-14T05:08:27;17.90;95.70
10903;DHT22;5504;47.312;11.060;2022-09-14T05:10:57;17.90;95.80
10903;DHT22;5504;47.312;11.060;2022-09-14T05:13:23;18.00;95.40
10903;DHT22;5504;47.312;11.060;2022-09-14T05:15:49;18.10;95.00
10903;DHT22;5504;47.312;11.060;2022-09-14T05:18:16;18.00;95.20
10903;DHT22;5504;47.312;11.060;2022-09-14T05:20:42;17.80;95.10
10903;DHT22;5504;47.312;11.060;2022-09-14T05:23:08;17.70;95.10
10903;DHT22;5504;47.312;11.060;2022-09-14T05:25:34;17.80;95.60
10903;DHT22;5504;47.312;11.060;2022-09-14T05:27:59;17.80;95.60
10903;DHT22;5504;47.312;11.060;2022-09-14T05:30:25;17.70;95.40
10903;DHT22;5504;47.312;11.060;2022-09-14T05:32:52;17.80;95.50
10903;DHT22;5504;47.312;11.060;2022-09-14T05:35:17;17.90;95.40
10903;DHT22;5504;47.312;11.060;2022-09-14T05:37:43;17.90;95.30
10903;DHT22;5504;47.312;11.060;2022-09-14T05:40:09;18.00;95.30
10903;DHT22;5504;47.312;11.060;2022-09-14T05:42:35;18.10;95.60
10903;DHT22;5504;47.312;11.060;2022-09-14T05:45:00;18.00;95.70
10903;DHT22;5504;47.312;11.060;2022-09-14T05:47:30;18.00;95.90
10903;DHT22;5504;47.312;11.060;2022-09-14T05:49:56;18.10;95.80
10903;DHT22;5504;47.312;11.060;2022-09-14T05:52:22;18.10;95.80
10903;DHT22;5504;47.312;11.060;2022-09-14T05:54:48;18.10;95.80
10903;DHT22;5504;47.312;11.060;2022-09-14T05:57:14;18.00;96.00
10903;DHT22;5504;47.312;11.060;2022-09-14T05:59:40;18.10;95.90
10903;DHT22;5504;47.312;11.060;2022-09-14T06:02:05;18.10;95.90
10903;DHT22;5504;47.312;11.060;2022-09-14T06:04:31;18.10;96.20
10903;DHT22;5504;47.312;11.060;2022-09-14T06:06:57;18.20;96.50
10903;DHT22;5504;47.312;11.060;2022-09-14T06:09:22;18.10;96.20
10903;DHT22;5504;47.312;11.060;2022-09-14T06:11:49;18.10;96.30
10903;DHT22;5504;47.312;11.060;2022-09-14T06:14:14;18.10;96.70
10903;DHT22;5504;47.312;11.060;2022-09-14T06:16:44;18.00;96.40
10903;DHT22;5504;47.312;11.060;2022-09-14T06:19:10;18.10;96.10
10903;DHT22;5504;47.312;11.060;2022-09-14T06:21:38;18.10;96.40
10903;DHT22;5504;47.312;11.060;2022-09-14T06:24:04;18.00;96.10
10903;DHT22;5504;47.312;11.060;2022-09-14T06:26:30;18.20;95.90
10903;DHT22;5504;47.312;11.060;2022-09-14T06:28:56;18.30;95.70
10903;DHT22;5504;47.312;11.060;2022-09-14T06:31:21;18.50;95.50
10903;DHT22;5504;47.312;11.060;2022-09-14T06:33:50;18.40;94.90
10903;DHT22;5504;47.312;11.060;2022-09-14T06:36:19;18.40;94.80
10903;DHT22;5504;47.312;11.060;2022-09-14T06:38:46;18.50;94.70
10903;DHT22;5504;47.312;11.060;2022-09-14T06:41:16;18.20;94.80
10903;DHT22;5504;47.312;11.060;2022-09-14T06:43:45;18.30;95.10
10903;DHT22;5504;47.312;11.060;2022-09-14T06:46:19;18.50;95.30
10903;DHT22;5504;47.312;11.060;2022-09-14T06:48:55;18.80;95.70
10903;DHT22;5504;47.312;11.060;2022-09-14T06:51:39;19.00;95.80
10903;DHT22;5504;47.312;11.060;2022-09-14T06:54:05;19.30;94.30
10903;DHT22;5504;47.312;11.060;2022-09-14T06:56:37;19.40;93.70
10903;DHT22;5504;47.312;11.060;2022-09-14T06:59:04;19.50;93.10
10903;DHT22;5504;47.312;11.060;2022-09-14T07:01:30;19.70;93.10
10903;DHT22;5504;47.312;11.060;2022-09-14T07:03:56;19.60;92.60
10903;DHT22;5504;47.312;11.060;2022-09-14T07:06:24;19.70;92.40
10903;DHT22;5504;47.312;11.060;2022-09-14T07:08:51;19.90;92.50
10903;DHT22;5504;47.312;11.060;2022-09-14T07:11:20;20.10;92.60
10903;DHT22;5504;47.312;11.060;2022-09-14T07:13:46;20.00;91.90
10903;DHT22;5504;47.312;11.060;2022-09-14T07:16:12;20.20;91.30
10903;DHT22;5504;47.312;11.060;2022-09-14T07:18:39;20.60;91.90
10903;DHT22;5504;47.312;11.060;2022-09-14T07:21:07;20.90;91.70
10903;DHT22;5504;47.312;11.060;2022-09-14T07:23:36;21.20;90.70
10903;DHT22;5504;47.312;11.060;2022-09-14T07:26:19;21.10;91.20
10903;DHT22;5504;47.312;11.060;2022-09-14T07:28:48;20.90;90.30
10903;DHT22;5504;47.312;11.060;2022-09-14T07:31:26;21.00;91.50
10903;DHT22;5504;47.312;11.060;2022-09-14T07:33:56;21.10;91.60
10903;DHT22;5504;47.312;11.060;2022-09-14T07:36:24;21.40;91.40
10903;DHT22;5504;47.312;11.060;2022-09-14T07:38:50;21.50;90.60
10903;DHT22;5504;47.312;11.060;2022-09-14T07:41:17;21.70;90.90
10903;DHT22;5504;47.312;11.060;2022-09-14T07:43:43;22.00;90.50
10903;DHT22;5504;47.312;11.060;2022-09-14T07:46:08;22.10;89.50
10903;DHT22;5504;47.312;11.060;2022-09-14T07:48:35;22.10;88.90
10903;DHT22;5504;47.312;11.060;2022-09-14T07:51:03;22.00;87.70
10903;DHT22;5504;47.312;11.060;2022-09-14T07:53:29;21.80;86.20
10903;DHT22;5504;47.312;11.060;2022-09-14T07:56:00;21.90;88.80
10903;DHT22;5504;47.312;11.060;2022-09-14T07:58:26;22.10;89.20
10903;DHT22;5504;47.312;11.060;2022-09-14T08:00:57;22.40;88.30
10903;DHT22;5504;47.312;11.060;2022-09-14T08:03:24;22.70;88.50
10903;DHT22;5504;47.312;11.060;2022-09-14T08:05:59;22.80;86.80
10903;DHT22;5504;47.312;11.060;2022-09-14T08:08:30;22.70;85.00
10903;DHT22;5504;47.312;11.060;2022-09-14T08:11:05;23.20;88.00
10903;DHT22;5504;47.312;11.060;2022-09-14T08:13:34;23.40;83.20
10903;DHT22;5504;47.312;11.060;2022-09-14T08:16:00;24.20;84.20
10903;DHT22;5504;47.312;11.060;2022-09-14T08:18:27;24.80;81.80
10903;DHT22;5504;47.312;11.060;2022-09-14T08:20:54;25.30;78.10
10903;DHT22;5504;47.312;11.060;2022-09-14T08:23:20;25.70;77.20
10903;DHT22;5504;47.312;11.060;2022-09-14T08:25:45;26.10;75.00
10903;DHT22;5504;47.312;11.060;2022-09-14T08:28:11;26.70;73.00
10903;DHT22;5504;47.312;11.060;2022-09-14T08:30:36;26.90;71.50
10903;DHT22;5504;47.312;11.060;2022-09-14T08:33:02;27.10;70.20
10903;DHT22;5504;47.312;11.060;2022-09-14T08:35:28;26.10;66.00
10903;DHT22;5504;47.312;11.060;2022-09-14T08:37:54;26.40;70.50
10903;DHT22;5504;47.312;11.060;2022-09-14T08:40:19;26.60;66.10
10903;DHT22;5504;47.312;11.060;2022-09-14T08:42:47;26.60;68.30
10903;DHT22;5504;47.312;11.060;2022-09-14T08:45:15;26.70;68.30
10903;DHT22;5504;47.312;11.060;2022-09-14T08:47:41;26.90;67.10
10903;DHT22;5504;47.312;11.060;2022-09-14T08:50:20;26.80;66.40
10903;DHT22;5504;47.312;11.060;2022-09-14T08:52:52;26.50;69.30
10903;DHT22;5504;47.312;11.060;2022-09-14T08:55:39;26.20;69.10
10903;DHT22;5504;47.312;11.060;2022-09-14T09:00:45;25.10;70.00
10903;DHT22;5504;47.312;11.060;2022-09-14T09:03:33;24.60;69.80
10903;DHT22;5504;47.312;11.060;2022-09-14T09:08:52;24.20;72.30
10903;DHT22;5504;47.312;11.060;2022-09-14T09:11:24;24.30;73.00
10903;DHT22;5504;47.312;11.060;2022-09-14T09:13:52;24.50;74.40
10903;DHT22;5504;47.312;11.060;2022-09-14T09:16:22;24.90;76.80
10903;DHT22;5504;47.312;11.060;2022-09-14T09:18:56;25.50;76.20
10903;DHT22;5504;47.312;11.060;2022-09-14T09:21:38;25.90;69.90
10903;DHT22;5504;47.312;11.060;2022-09-14T09:26:52;26.50;67.80
10903;DHT22;5504;47.312;11.060;2022-09-14T09:29:19;26.70;71.50
10903;DHT22;5504;47.312;11.060;2022-09-14T09:31:49;26.90;69.80
10903;DHT22;5504;47.312;11.060;2022-09-14T09:34:25;26.60;67.80
10903;DHT22;5504;47.312;11.060;2022-09-14T09:36:51;26.80;72.70
10903;DHT22;5504;47.312;11.060;2022-09-14T09:39:17;27.10;73.60
10903;DHT22;5504;47.312;11.060;2022-09-14T09:41:57;27.40;72.80
10903;DHT22;5504;47.312;11.060;2022-09-14T09:44:24;27.30;72.00
10903;DHT22;5504;47.312;11.060;2022-09-14T09:46:57;27.40;71.10
10903;DHT22;5504;47.312;11.060;2022-09-14T09:52:10;27.40;69.80
10903;DHT22;5504;47.312;11.060;2022-09-14T09:54:38;27.20;70.30
10903;DHT22;5504;47.312;11.060;2022-09-14T09:59:41;27.10;69.90
10903;DHT22;5504;47.312;11.060;2022-09-14T10:05:00;27.20;71.10
10903;DHT22;5504;47.312;11.060;2022-09-14T10:07:28;27.30;70.20
10903;DHT22;5504;47.312;11.060;2022-09-14T10:10:12;27.40;70.10
10903;DHT22;5504;47.312;11.060;2022-09-14T10:12:44;27.70;66.40
10903;DHT22;5504;47.312;11.060;2022-09-14T10:15:22;27.50;63.20
10903;DHT22;5504;47.312;11.060;2022-09-14T10:20:27;27.40;61.70
10903;DHT22;5504;47.312;11.060;2022-09-14T10:22:53;27.50;63.60
10903;DHT22;5504;47.312;11.060;2022-09-14T10:25:22;27.60;65.20
10903;DHT22;5504;47.312;11.060;2022-09-14T10:27:59;28.10;66.50
10903;DHT22;5504;47.312;11.060;2022-09-14T10:30:35;28.40;64.50
10903;DHT22;5504;47.312;11.060;2022-09-14T10:33:05;28.70;66.30
10903;DHT22;5504;47.312;11.060;2022-09-14T10:38:31;28.30;63.00
10903;DHT22;5504;47.312;11.060;2022-09-14T10:41:21;28.10;62.00
10903;DHT22;5504;47.312;11.060;2022-09-14T10:49:32;27.80;63.00
10903;DHT22;5504;47.312;11.060;2022-09-14T11:00:21;28.70;64.50
10903;DHT22;5504;47.312;11.060;2022-09-14T11:03:18;28.70;62.80
10903;DHT22;5504;47.312;11.060;2022-09-14T11:08:33;29.00;64.40
10903;DHT22;5504;47.312;11.060;2022-09-14T11:19:36;28.40;57.90
10903;DHT22;5504;47.312;11.060;2022-09-14T11:24:45;29.20;61.10
10903;DHT22;5504;47.312;11.060;2022-09-14T11:27:27;29.20;57.60
10903;DHT22;5504;47.312;11.060;2022-09-14T11:30:07;28.90;56.90
10903;DHT22;5504;47.312;11.060;2022-09-14T11:35:43;28.80;57.60
10903;DHT22;5504;47.312;11.060;2022-09-14T11:38:40;29.30;62.40
10903;DHT22;5504;47.312;11.060;2022-09-14T11:41:21;29.50;62.00
10903;DHT22;5504;47.312;11.060;2022-09-14T11:44:03;29.80;57.70
10903;DHT22;5504;47.312;11.060;2022-09-14T11:46:44;30.00;57.30
10903;DHT22;5504;47.312;11.060;2022-09-14T11:52:24;30.70;61.00
10903;DHT22;5504;47.312;11.060;2022-09-14T11:54:50;30.90;56.60
10903;DHT22;5504;47.312;11.060;2022-09-14T11:57:21;30.90;56.60
10903;DHT22;5504;47.312;11.060;2022-09-14T11:59:48;30.80;56.60
10903;DHT22;5504;47.312;11.060;2022-09-14T12:08:00;30.60;56.20
10903;DHT22;5504;47.312;11.060;2022-09-14T12:10:27;30.20;55.70
10903;DHT22;5504;47.312;11.060;2022-09-14T12:15:37;29.70;58.00
10903;DHT22;5504;47.312;11.060;2022-09-14T12:26:01;28.80;59.80
10903;DHT22;5504;47.312;11.060;2022-09-14T12:59:16;27.10;70.00
10903;DHT22;5504;47.312;11.060;2022-09-14T13:04:16;26.80;65.80
10903;DHT22;5504;47.312;11.060;2022-09-14T13:06:46;26.70;71.20
10903;DHT22;5504;47.312;11.060;2022-09-14T13:09:17;26.70;74.60
10903;DHT22;5504;47.312;11.060;2022-09-14T13:11:47;26.60;75.40
10903;DHT22;5504;47.312;11.060;2022-09-14T13:14:22;26.60;76.00
10903;DHT22;5504;47.312;11.060;2022-09-14T13:16:49;26.60;75.70
10903;DHT22;5504;47.312;11.060;2022-09-14T13:19:22;26.50;76.70
10903;DHT22;5504;47.312;11.060;2022-09-14T13:21:50;26.50;77.90
10903;DHT22;5504;47.312;11.060;2022-09-14T13:24:30;26.30;78.40
10903;DHT22;5504;47.312;11.060;2022-09-14T13:27:00;26.30;78.40
10903;DHT22;5504;47.312;11.060;2022-09-14T13:29:26;26.20;76.60
10903;DHT22;5504;47.312;11.060;2022-09-14T13:31:54;26.10;77.60
10903;DHT22;5504;47.312;11.060;2022-09-14T13:34:28;26.00;80.20
10903;DHT22;5504;47.312;11.060;2022-09-14T13:36:56;25.90;82.50
10903;DHT22;5504;47.312;11.060;2022-09-14T13:41:54;25.60;82.20
10903;DHT22;5504;47.312;11.060;2022-09-14T13:44:33;25.50;82.10
10903;DHT22;5504;47.312;11.060;2022-09-14T13:47:02;25.50;82.00
10903;DHT22;5504;47.312;11.060;2022-09-14T13:49:29;25.30;83.60
10903;DHT22;5504;47.312;11.060;2022-09-14T13:54:49;25.20;83.90
10903;DHT22;5504;47.312;11.060;2022-09-14T13:57:23;25.10;85.40
10903;DHT22;5504;47.312;11.060;2022-09-14T14:00:17;25.10;84.90
10903;DHT22;5504;47.312;11.060;2022-09-14T14:02:52;25.00;86.10
10903;DHT22;5504;47.312;11.060;2022-09-14T14:05:29;25.00;85.60
10903;DHT22;5504;47.312;11.060;2022-09-14T14:07:57;25.00;85.60
10903;DHT22;5504;47.312;11.060;2022-09-14T14:12:55;25.20;84.50
10903;DHT22;5504;47.312;11.060;2022-09-14T14:17:50;25.10;87.40
10903;DHT22;5504;47.312;11.060;2022-09-14T14:25:46;24.90;86.50
10903;DHT22;5504;47.312;11.060;2022-09-14T14:28:23;25.10;87.20
10903;DHT22;5504;47.312;11.060;2022-09-14T14:30:50;25.10;85.40
10903;DHT22;5504;47.312;11.060;2022-09-14T14:33:17;25.20;84.80
10903;DHT22;5504;47.312;11.060;2022-09-14T14:35:44;25.40;84.70
10903;DHT22;5504;47.312;11.060;2022-09-14T14:38:11;25.40;86.70
10903;DHT22;5504;47.312;11.060;2022-09-14T14:40:38;25.50;83.40
10903;DHT22;5504;47.312;11.060;2022-09-14T14:43:04;25.60;82.90
10903;DHT22;5504;47.312;11.060;2022-09-14T14:45:31;25.40;84.60
10903;DHT22;5504;47.312;11.060;2022-09-14T14:47:58;25.30;86.10
10903;DHT22;5504;47.312;11.060;2022-09-14T14:50:32;25.30;86.30
10903;DHT22;5504;47.312;11.060;2022-09-14T14:52:59;25.30;86.40
10903;DHT22;5504;47.312;11.060;2022-09-14T14:55:26;25.20;85.40
10903;DHT22;5504;47.312;11.060;2022-09-14T14:57:58;25.20;85.90
10903;DHT22;5504;47.312;11.060;2022-09-14T15:00:26;25.30;86.70
10903;DHT22;5504;47.312;11.060;2022-09-14T15:02:52;25.20;87.90
10903;DHT22;5504;47.312;11.060;2022-09-14T15:05:19;25.10;88.50
10903;DHT22;5504;47.312;11.060;2022-09-14T15:07:45;25.10;87.70
10903;DHT22;5504;47.312;11.060;2022-09-14T15:10:15;25.10;87.60
10903;DHT22;5504;47.312;11.060;2022-09-14T15:12:41;25.10;88.00
10903;DHT22;5504;47.312;11.060;2022-09-14T15:15:11;25.00;88.00
10903;DHT22;5504;47.312;11.060;2022-09-14T15:17:37;25.10;88.30
10903;DHT22;5504;47.312;11.060;2022-09-14T15:20:03;25.10;87.30
10903;DHT22;5504;47.312;11.060;2022-09-14T15:22:29;25.10;87.00
10903;DHT22;5504;47.312;11.060;2022-09-14T15:24:55;25.10;87.90
10903;DHT22;5504;47.312;11.060;2022-09-14T15:27:21;25.10;89.30
10903;DHT22;5504;47.312;11.060;2022-09-14T15:29:47;25.10;90.10
10903;DHT22;5504;47.312;11.060;2022-09-14T15:32:12;25.10;89.40
10903;DHT22;5504;47.312;11.060;2022-09-14T15:34:38;25.00;88.70
10903;DHT22;5504;47.312;11.060;2022-09-14T15:37:05;25.00;87.80
10903;DHT22;5504;47.312;11.060;2022-09-14T15:39:31;24.90;87.50
10903;DHT22;5504;47.312;11.060;2022-09-14T15:41:57;24.80;88.60
10903;DHT22;5504;47.312;11.060;2022-09-14T15:44:23;24.70;88.40
10903;DHT22;5504;47.312;11.060;2022-09-14T15:46:49;24.60;89.40
10903;DHT22;5504;47.312;11.060;2022-09-14T15:49:20;24.60;90.10
10903;DHT22;5504;47.312;11.060;2022-09-14T15:51:48;24.50;90.70
10903;DHT22;5504;47.312;11.060;2022-09-14T15:54:15;24.40;91.30
10903;DHT22;5504;47.312;11.060;2022-09-14T15:56:46;24.20;91.50
10903;DHT22;5504;47.312;11.060;2022-09-14T15:59:12;24.10;91.70
10903;DHT22;5504;47.312;11.060;2022-09-14T16:01:38;24.00;92.10
10903;DHT22;5504;47.312;11.060;2022-09-14T16:04:05;23.90;92.30
10903;DHT22;5504;47.312;11.060;2022-09-14T16:06:32;23.70;91.40
10903;DHT22;5504;47.312;11.060;2022-09-14T16:09:02;23.60;91.10
10903;DHT22;5504;47.312;11.060;2022-09-14T16:11:29;23.50;91.20
10903;DHT22;5504;47.312;11.060;2022-09-14T16:13:55;23.20;91.30
10903;DHT22;5504;47.312;11.060;2022-09-14T16:16:21;22.90;91.50
10903;DHT22;5504;47.312;11.060;2022-09-14T16:18:47;22.50;92.10
10903;DHT22;5504;47.312;11.060;2022-09-14T16:21:21;22.60;92.10
10903;DHT22;5504;47.312;11.060;2022-09-14T16:23:53;22.40;92.30
10903;DHT22;5504;47.312;11.060;2022-09-14T16:26:23;22.50;92.70
10903;DHT22;5504;47.312;11.060;2022-09-14T16:28:51;22.60;92.80
10903;DHT22;5504;47.312;11.060;2022-09-14T16:31:23;22.50;92.50
10903;DHT22;5504;47.312;11.060;2022-09-14T16:33:51;22.50;93.20
10903;DHT22;5504;47.312;11.060;2022-09-14T16:36:23;22.50;93.70
10903;DHT22;5504;47.312;11.060;2022-09-14T16:38:51;22.50;93.90
10903;DHT22;5504;47.312;11.060;2022-09-14T16:41:17;22.50;93.80
10903;DHT22;5504;47.312;11.060;2022-09-14T16:43:43;22.40;93.80
10903;DHT22;5504;47.312;11.060;2022-09-14T16:46:11;22.30;93.70
10903;DHT22;5504;47.312;11.060;2022-09-14T16:48:39;22.30;94.00
10903;DHT22;5504;47.312;11.060;2022-09-14T16:51:06;22.10;93.90
10903;DHT22;5504;47.312;11.060;2022-09-14T16:53:34;22.10;94.20
10903;DHT22;5504;47.312;11.060;2022-09-14T16:56:02;22.10;94.30
10903;DHT22;5504;47.312;11.060;2022-09-14T16:58:28;21.90;94.00
10903;DHT22;5504;47.312;11.060;2022-09-14T17:00:54;21.90;94.30
10903;DHT22;5504;47.312;11.060;2022-09-14T17:03:20;21.90;94.30
10903;DHT22;5504;47.312;11.060;2022-09-14T17:05:46;21.70;94.70
10903;DHT22;5504;47.312;11.060;2022-09-14T17:08:11;21.70;94.90
10903;DHT22;5504;47.312;11.060;2022-09-14T17:10:37;21.70;95.10
10903;DHT22;5504;47.312;11.060;2022-09-14T17:13:03;21.40;95.70
10903;DHT22;5504;47.312;11.060;2022-09-14T17:15:29;21.30;96.30
10903;DHT22;5504;47.312;11.060;2022-09-14T17:17:55;21.20;96.70
10903;DHT22;5504;47.312;11.060;2022-09-14T17:20:21;21.00;97.20
10903;DHT22;5504;47.312;11.060;2022-09-14T17:22:47;21.10;97.40
10903;DHT22;5504;47.312;11.060;2022-09-14T17:25:13;21.20;97.30
10903;DHT22;5504;47.312;11.060;2022-09-14T17:27:38;21.20;97.00
10903;DHT22;5504;47.312;11.060;2022-09-14T17:30:05;21.30;96.80
10903;DHT22;5504;47.312;11.060;2022-09-14T17:32:31;21.30;96.60
10903;DHT22;5504;47.312;11.060;2022-09-14T17:34:58;21.30;96.60
10903;DHT22;5504;47.312;11.060;2022-09-14T17:37:24;21.30;96.60
10903;DHT22;5504;47.312;11.060;2022-09-14T17:39:49;21.20;96.50
10903;DHT22;5504;47.312;11.060;2022-09-14T17:42:15;21.20;96.40
10903;DHT22;5504;47.312;11.060;2022-09-14T17:44:41;21.20;96.50
10903;DHT22;5504;47.312;11.060;2022-09-14T17:47:07;21.20;96.40
10903;DHT22;5504;47.312;11.060;2022-09-14T17:49:33;21.10;96.40
10903;DHT22;5504;47.312;11.060;2022-09-14T17:51:58;21.20;96.20
10903;DHT22;5504;47.312;11.060;2022-09-14T17:54:25;21.10;96.10
10903;DHT22;5504;47.312;11.060;2022-09-14T17:56:51;21.10;96.20
10903;DHT22;5504;47.312;11.060;2022-09-14T17:59:18;21.10;96.30
10903;DHT22;5504;47.312;11.060;2022-09-14T18:01:45;20.90;96.30
10903;DHT22;5504;47.312;11.060;2022-09-14T18:04:12;20.90;96.70
10903;DHT22;5504;47.312;11.060;2022-09-14T18:06:44;20.90;96.80
10903;DHT22;5504;47.312;11.060;2022-09-14T18:09:13;20.90;96.80
10903;DHT22;5504;47.312;11.060;2022-09-14T18:11:39;20.80;96.90
10903;DHT22;5504;47.312;11.060;2022-09-14T18:14:05;20.70;96.90
10903;DHT22;5504;47.312;11.060;2022-09-14T18:16:31;20.60;97.00
10903;DHT22;5504;47.312;11.060;2022-09-14T18:18:58;20.70;97.00
10903;DHT22;5504;47.312;11.060;2022-09-14T18:21:24;20.70;97.00
10903;DHT22;5504;47.312;11.060;2022-09-14T18:23:52;20.60;97.00
10903;DHT22;5504;47.312;11.060;2022-09-14T18:26:19;20.70;97.30
10903;DHT22;5504;47.312;11.060;2022-09-14T18:28:45;20.70;97.30